Time;durP1;ratioP1;P1;durP2;ratioP2;P2;SDS_P1;SDS_P2;PMS_P1;PMS_P2;Temp;Humidity;BMP_temperature;BMP_pressure;BME280_temperature;BME280_humidity;BME280_pressure;Samples;Min_cycle;Max_cycle;Signal;HPM_P1;HPM_P2
2022/04/05 00:02:21;;;;;;;14.50;11.87;;;7.60;99.90;;;;;;5004350;28;20663;-67
2022/04/05 00:04:47;;;;;;;13.53;11.70;;;7.70;99.90;;;;;;4995027;28;20201;-67
2022/04/05 00:07:13;;;;;;;14.27;12.80;;;7.70;99.90;;;;;;4996125;28;20666;-67
2022/04/05 00:09:38;;;;;;;14.43;12.87;;;7.70;99.90;;;;;;4994850;28;20196;-67
2022/04/05 00:12:20;;;;;;;12.63;11.33;;;7.70;99.90;;;;;;5010103;28;20254;-69
2022/04/05 00:14:46;;;;;;;10.53;9.43;;;7.80;99.90;;;;;;4995756;28;20213;-68
2022/04/05 00:17:11;;;;;;;10.07;9.07;;;7.80;99.90;;;;;;4995043;28;20410;-68
2022/04/05 00:19:37;;;;;;;10.30;9.30;;;7.90;99.90;;;;;;4994651;28;20558;-68
2022/04/05 00:22:03;;;;;;;10.07;9.07;;;7.90;99.90;;;;;;4995004;28;20639;-68
2022/04/05 00:24:29;;;;;;;9.23;8.37;;;7.90;99.90;;;;;;4994441;28;20667;-68
2022/04/05 00:26:55;;;;;;;8.97;8.13;;;7.90;99.90;;;;;;4994593;28;20445;-68
2022/04/05 00:29:22;;;;;;;9.33;8.37;;;8.00;99.90;;;;;;4977067;28;20204;-68
2022/04/05 00:31:49;;;;;;;8.90;8.10;;;8.00;99.90;;;;;;4995071;28;20746;-68
2022/04/05 00:34:14;;;;;;;10.77;9.70;;;7.90;99.90;;;;;;4994723;28;20447;-68
2022/04/05 00:36:40;;;;;;;11.00;8.83;;;8.00;99.90;;;;;;4994607;28;20422;-67
2022/04/05 00:39:05;;;;;;;10.43;9.33;;;8.00;99.90;;;;;;4994519;28;20255;-68
2022/04/05 00:41:31;;;;;;;8.77;7.97;;;8.00;99.90;;;;;;4994613;28;20178;-68
2022/04/05 00:43:56;;;;;;;10.03;9.03;;;8.00;99.90;;;;;;4994544;28;20196;-68
2022/04/05 00:46:22;;;;;;;8.97;8.10;;;8.00;99.90;;;;;;4994548;28;20172;-68
2022/04/05 00:48:52;;;;;;;10.07;8.47;;;8.00;99.90;;;;;;4978161;28;20531;-68
2022/04/05 00:51:19;;;;;;;9.80;7.77;;;8.10;99.90;;;;;;4994340;28;20251;-67
2022/04/05 00:53:48;;;;;;;7.20;6.50;;;8.00;99.90;;;;;;4994544;28;20410;-67
2022/04/05 00:56:15;;;;;;;8.43;7.37;;;8.00;99.90;;;;;;4994563;28;20422;-68
2022/04/05 00:58:45;;;;;;;7.73;7.03;;;8.10;99.90;;;;;;4994087;28;20429;-67
2022/04/05 01:01:15;;;;;;;8.20;7.50;;;8.10;99.90;;;;;;4993826;28;20409;-67
2022/04/05 01:03:48;;;;;;;7.47;6.77;;;8.10;99.90;;;;;;4994572;28;20399;-68
2022/04/05 01:06:16;;;;;;;7.30;6.60;;;8.20;99.90;;;;;;4994214;28;20789;-68
2022/04/05 01:08:45;;;;;;;8.07;7.27;;;8.20;99.90;;;;;;4993965;28;20919;-67
2022/04/05 01:11:10;;;;;;;7.10;6.40;;;8.20;99.90;;;;;;4993806;28;20414;-68
2022/04/05 01:13:36;;;;;;;8.60;7.70;;;8.20;99.90;;;;;;4993039;28;20415;-68
2022/04/05 01:16:02;;;;;;;8.30;7.33;;;8.20;99.90;;;;;;4992932;28;20270;-67
2022/04/05 01:18:27;;;;;;;7.97;6.70;;;8.20;99.90;;;;;;4993888;28;20184;-67
2022/04/05 01:20:53;;;;;;;7.47;6.67;;;8.30;99.90;;;;;;4993111;28;20180;-68
2022/04/05 01:23:22;;;;;;;7.00;6.23;;;8.30;99.90;;;;;;4993715;28;20176;-68
2022/04/05 01:25:48;;;;;;;7.07;6.37;;;8.30;99.90;;;;;;4993873;28;20284;-67
2022/04/05 01:28:14;;;;;;;6.40;5.77;;;8.30;99.90;;;;;;4993502;28;20432;-68
2022/04/05 01:30:40;;;;;;;7.23;6.53;;;8.20;99.90;;;;;;4992814;28;20506;-68
2022/04/05 01:33:06;;;;;;;6.70;6.00;;;8.30;99.90;;;;;;4993809;28;20176;-67
2022/04/05 01:35:37;;;;;;;7.50;6.80;;;8.30;99.90;;;;;;4975595;28;20457;-68
2022/04/05 01:38:03;;;;;;;7.30;6.57;;;8.40;99.90;;;;;;5000586;28;20164;-67
2022/04/05 01:40:29;;;;;;;6.33;5.73;;;8.30;99.90;;;;;;5000055;28;20421;-68
2022/04/05 01:42:55;;;;;;;6.80;6.10;;;8.30;99.90;;;;;;4993474;28;20969;-68
2022/04/05 01:45:21;;;;;;;6.43;5.83;;;8.40;99.90;;;;;;4993475;28;20549;-67
2022/04/05 01:47:47;;;;;;;6.90;5.80;;;8.40;99.90;;;;;;4993162;28;20416;-67
2022/04/05 01:50:12;;;;;;;6.83;5.70;;;8.40;99.90;;;;;;4993176;28;20552;-68
2022/04/05 01:52:38;;;;;;;6.83;6.13;;;8.40;99.90;;;;;;4993479;28;20306;-68
2022/04/05 01:55:06;;;;;;;6.70;5.87;;;8.40;99.90;;;;;;4993262;28;20195;-67
2022/04/05 01:57:31;;;;;;;7.17;6.43;;;8.40;99.90;;;;;;4993013;28;20173;-67
2022/04/05 01:59:57;;;;;;;7.53;6.77;;;8.50;99.90;;;;;;4993175;28;20431;-68
2022/04/05 02:02:22;;;;;;;8.17;6.37;;;8.50;99.90;;;;;;4992916;28;20184;-68
2022/04/05 02:04:48;;;;;;;6.90;6.00;;;8.50;99.90;;;;;;4992952;28;20290;-68
2022/04/05 02:07:15;;;;;;;7.30;6.27;;;8.50;99.90;;;;;;4993083;28;20174;-67
2022/04/05 02:09:41;;;;;;;7.90;6.80;;;8.60;99.90;;;;;;4992384;28;20299;-67
2022/04/05 02:12:07;;;;;;;8.70;7.13;;;8.60;99.90;;;;;;4992614;28;20439;-68
2022/04/05 02:14:32;;;;;;;7.80;6.67;;;8.50;99.90;;;;;;4991512;28;20212;-68
2022/04/05 02:16:58;;;;;;;8.00;6.57;;;8.60;99.90;;;;;;5053379;22;20587;-71
2022/04/05 02:19:24;;;;;;;7.57;6.73;;;8.60;99.90;;;;;;5050142;28;20216;-71
2022/04/05 02:21:49;;;;;;;6.70;6.00;;;8.60;99.90;;;;;;5052035;28;20229;-71
2022/04/05 02:24:15;;;;;;;7.37;6.57;;;8.60;99.90;;;;;;5049197;28;20201;-71
2022/04/05 02:26:41;;;;;;;8.20;7.40;;;8.60;99.90;;;;;;5044213;28;20954;-71
2022/04/05 02:29:06;;;;;;;8.10;7.13;;;8.60;99.90;;;;;;5031752;28;20609;-71
2022/04/05 02:31:32;;;;;;;7.47;6.77;;;8.60;99.90;;;;;;5032122;28;20205;-71
2022/04/05 02:33:58;;;;;;;9.40;8.00;;;8.60;99.90;;;;;;5024066;28;20186;-71
2022/04/05 02:36:24;;;;;;;10.10;8.47;;;8.70;99.90;;;;;;5012752;28;20438;-71
2022/04/05 02:38:49;;;;;;;9.30;7.93;;;8.70;99.90;;;;;;5031795;28;20567;-72
2022/04/05 02:41:15;;;;;;;6.73;6.13;;;8.80;99.90;;;;;;5031522;28;20177;-73
2022/04/05 02:43:41;;;;;;;6.53;5.90;;;8.80;99.90;;;;;;5031809;28;20170;-72
2022/04/05 02:46:08;;;;;;;5.27;4.77;;;8.80;99.90;;;;;;5031859;28;20190;-72
2022/04/05 02:48:34;;;;;;;4.90;4.37;;;8.80;99.90;;;;;;5029824;28;20174;-72
2022/04/05 02:50:59;;;;;;;4.40;4.00;;;8.80;99.90;;;;;;5031026;28;20458;-71
2022/04/05 02:53:25;;;;;;;4.07;3.63;;;8.80;99.90;;;;;;5031575;28;20628;-71
2022/04/05 02:55:52;;;;;;;5.20;3.97;;;8.80;99.90;;;;;;5030657;28;20230;-72
2022/04/05 02:58:17;;;;;;;4.23;3.83;;;8.80;99.90;;;;;;5030022;28;20423;-72
2022/04/05 03:00:43;;;;;;;5.33;4.83;;;8.80;99.90;;;;;;5031024;28;20177;-72
2022/04/05 03:03:08;;;;;;;4.10;3.70;;;8.90;99.90;;;;;;5030197;28;20182;-72
2022/04/05 03:05:34;;;;;;;4.70;4.20;;;8.90;99.90;;;;;;5031371;28;20199;-72
2022/04/05 03:07:59;;;;;;;4.10;3.70;;;8.90;99.90;;;;;;5031151;28;20685;-72
2022/04/05 03:10:25;;;;;;;4.90;4.30;;;8.90;99.90;;;;;;5029632;28;20206;-71
2022/04/05 03:12:50;;;;;;;5.00;4.50;;;8.90;99.90;;;;;;5031540;28;20300;-72
2022/04/05 03:15:16;;;;;;;4.37;3.97;;;8.90;99.90;;;;;;5031316;28;20186;-72
2022/04/05 03:17:46;;;;;;;4.17;3.70;;;8.90;99.90;;;;;;5031574;28;20638;-72
2022/04/05 03:20:13;;;;;;;4.63;4.07;;;9.00;99.90;;;;;;5029202;28;20444;-72
2022/04/05 03:22:42;;;;;;;4.77;4.37;;;8.90;99.90;;;;;;5031272;28;20468;-71
2022/04/05 03:25:10;;;;;;;5.90;4.57;;;9.00;99.90;;;;;;5031197;28;20807;-72
2022/04/05 03:27:42;;;;;;;5.00;4.40;;;9.00;99.90;;;;;;5029840;28;20437;-71
2022/04/05 03:30:10;;;;;;;5.07;4.63;;;9.00;99.90;;;;;;5029201;28;21047;-72
2022/04/05 03:32:35;;;;;;;4.60;4.20;;;9.10;99.90;;;;;;5031122;28;20447;-72
2022/04/05 03:35:01;;;;;;;5.40;4.87;;;9.00;99.90;;;;;;5031205;28;20401;-72
2022/04/05 03:37:27;;;;;;;4.83;4.33;;;9.10;99.90;;;;;;5033705;28;20219;-71
2022/04/05 03:39:52;;;;;;;4.70;4.20;;;9.10;99.90;;;;;;5034518;28;20178;-71
2022/04/05 03:42:18;;;;;;;4.63;4.10;;;9.10;99.90;;;;;;5031973;28;20227;-70
2022/04/05 03:44:44;;;;;;;4.03;3.67;;;9.00;99.90;;;;;;5034816;28;20714;-70
2022/04/05 03:47:09;;;;;;;4.70;4.13;;;9.00;99.90;;;;;;5034700;28;20556;-71
2022/04/05 03:49:35;;;;;;;6.43;5.30;;;9.00;99.90;;;;;;5033054;28;20244;-71
2022/04/05 03:52:00;;;;;;;5.60;4.90;;;9.00;99.90;;;;;;5033128;28;20186;-71
2022/04/05 03:54:26;;;;;;;4.50;4.10;;;9.10;99.90;;;;;;5034533;28;20176;-71
2022/04/05 03:56:51;;;;;;;4.93;4.43;;;9.00;99.90;;;;;;5034636;28;20289;-71
2022/04/05 03:59:17;;;;;;;4.70;4.20;;;9.00;99.90;;;;;;5034459;28;20258;-71
2022/04/05 04:01:42;;;;;;;4.80;4.30;;;9.00;99.90;;;;;;5032880;28;20209;-72
2022/04/05 04:04:08;;;;;;;5.20;4.50;;;9.00;99.90;;;;;;5034693;28;20182;-72
2022/04/05 04:06:34;;;;;;;5.67;4.70;;;9.00;99.90;;;;;;5034335;28;20576;-72
2022/04/05 04:08:59;;;;;;;5.77;4.90;;;9.00;99.90;;;;;;5034313;28;20414;-70
2022/04/05 04:11:25;;;;;;;5.57;4.97;;;9.00;99.90;;;;;;5034169;28;20282;-71
2022/04/05 04:13:50;;;;;;;7.70;5.70;;;9.00;99.90;;;;;;5032867;28;20183;-72
2022/04/05 04:16:16;;;;;;;5.97;5.33;;;9.00;99.90;;;;;;5034255;28;20683;-72
2022/04/05 04:18:41;;;;;;;5.67;5.10;;;9.00;99.90;;;;;;5023846;28;20215;-72
2022/04/05 04:21:07;;;;;;;7.10;6.27;;;9.10;99.90;;;;;;5027061;28;20286;-72
2022/04/05 04:23:32;;;;;;;8.00;5.90;;;9.20;99.90;;;;;;5025460;28;20249;-71
2022/04/05 04:25:58;;;;;;;7.53;6.50;;;9.10;99.90;;;;;;5030215;28;20222;-70
2022/04/05 04:28:23;;;;;;;8.60;7.10;;;9.10;99.90;;;;;;5032912;28;20234;-70
2022/04/05 04:30:49;;;;;;;9.17;6.97;;;9.10;99.90;;;;;;5032560;28;20222;-70
2022/04/05 04:33:15;;;;;;;9.03;7.40;;;9.20;99.90;;;;;;5030832;28;20205;-72
2022/04/05 04:35:42;;;;;;;12.13;9.47;;;9.20;99.90;;;;;;5013430;28;20203;-72
2022/04/05 04:38:08;;;;;;;12.07;9.30;;;9.20;99.90;;;;;;5028381;28;20273;-71
2022/04/05 04:40:35;;;;;;;13.63;9.30;;;9.20;99.90;;;;;;5032689;28;20463;-71
2022/04/05 04:43:01;;;;;;;12.60;9.50;;;9.20;99.90;;;;;;5033125;28;20440;-69
2022/04/05 04:45:28;;;;;;;15.73;11.50;;;9.20;99.90;;;;;;5032986;28;20527;-71
2022/04/05 04:47:55;;;;;;;13.00;10.40;;;9.30;99.90;;;;;;5028456;28;20209;-69
2022/04/05 04:50:20;;;;;;;15.40;11.40;;;9.30;99.90;;;;;;5027054;28;21005;-70
2022/04/05 04:52:46;;;;;;;14.57;10.83;;;9.30;99.90;;;;;;5012639;28;20425;-69
2022/04/05 04:55:11;;;;;;;16.27;12.83;;;9.30;99.90;;;;;;5013308;28;20421;-70
2022/04/05 04:57:37;;;;;;;17.70;13.23;;;9.40;99.90;;;;;;5014824;28;20199;-70
2022/04/05 05:00:05;;;;;;;16.80;13.33;;;9.40;99.90;;;;;;5013468;28;20206;-70
2022/04/05 05:02:30;;;;;;;15.97;11.60;;;9.30;99.90;;;;;;5013157;28;20179;-70
2022/04/05 05:04:56;;;;;;;16.70;12.13;;;9.30;99.90;;;;;;5013962;28;20942;-70
2022/04/05 05:07:21;;;;;;;16.10;12.20;;;9.20;99.90;;;;;;5014123;28;20560;-70
2022/04/05 05:09:47;;;;;;;17.00;13.73;;;9.30;99.90;;;;;;5014184;28;20304;-71
2022/04/05 05:12:12;;;;;;;17.70;12.93;;;9.30;99.90;;;;;;5013806;28;20179;-71
2022/04/05 05:14:39;;;;;;;16.20;12.20;;;9.40;99.90;;;;;;5013339;28;20171;-71
2022/04/05 05:17:05;;;;;;;18.73;13.20;;;9.40;99.90;;;;;;5013201;28;20631;-72
2022/04/05 05:19:31;;;;;;;16.63;12.37;;;9.40;99.90;;;;;;5014266;28;20422;-70
2022/04/05 05:21:57;;;;;;;17.73;12.67;;;9.40;99.90;;;;;;5013479;28;20469;-70
2022/04/05 05:24:23;;;;;;;15.60;12.53;;;9.30;99.90;;;;;;5012971;28;20410;-71
2022/04/05 05:26:48;;;;;;;15.30;11.10;;;9.30;99.90;;;;;;5013312;28;20698;-72
2022/04/05 05:29:15;;;;;;;16.73;11.57;;;9.30;99.90;;;;;;5012783;28;20226;-70
2022/04/05 05:31:41;;;;;;;16.13;11.43;;;9.30;99.90;;;;;;5025732;28;20198;-70
2022/04/05 05:34:06;;;;;;;15.73;11.50;;;9.30;99.90;;;;;;5031505;28;20461;-71
2022/04/05 05:36:32;;;;;;;13.57;10.47;;;9.30;99.90;;;;;;5031242;28;20210;-70
2022/04/05 05:38:57;;;;;;;14.70;10.90;;;9.30;99.90;;;;;;5031706;28;20231;-70
2022/04/05 05:41:23;;;;;;;15.43;11.67;;;9.30;99.90;;;;;;5030335;28;20209;-71
2022/04/05 05:43:48;;;;;;;13.17;11.10;;;9.40;99.90;;;;;;5030799;28;20226;-71
2022/04/05 05:46:15;;;;;;;14.53;11.30;;;9.40;99.90;;;;;;5030964;28;20654;-70
2022/04/05 05:48:41;;;;;;;14.47;9.87;;;9.40;99.90;;;;;;5011390;28;20581;-72
2022/04/05 05:51:07;;;;;;;14.30;11.67;;;9.40;99.90;;;;;;5013417;28;20589;-70
2022/04/05 05:53:33;;;;;;;15.33;12.43;;;9.40;99.90;;;;;;5030703;28;20509;-70
2022/04/05 05:55:59;;;;;;;15.40;11.40;;;9.40;99.90;;;;;;5030702;28;20182;-70
2022/04/05 05:58:25;;;;;;;12.40;9.90;;;9.40;99.90;;;;;;5030384;28;20423;-70
2022/04/05 06:00:51;;;;;;;12.90;10.50;;;9.50;99.90;;;;;;5030490;28;20404;-69
2022/04/05 06:03:17;;;;;;;12.17;9.73;;;9.50;99.90;;;;;;5030639;28;20197;-69
2022/04/05 06:05:43;;;;;;;12.33;9.43;;;9.50;99.90;;;;;;5030535;28;20571;-71
2022/04/05 06:08:09;;;;;;;11.50;8.90;;;9.50;99.90;;;;;;5032211;28;20435;-71
2022/04/05 06:10:35;;;;;;;11.67;9.50;;;9.60;99.90;;;;;;5032001;28;20846;-71
2022/04/05 06:13:01;;;;;;;12.40;9.90;;;9.60;99.90;;;;;;5030682;28;20409;-71
2022/04/05 06:15:27;;;;;;;11.63;9.27;;;9.60;99.90;;;;;;5031826;28;20454;-71
2022/04/05 06:17:53;;;;;;;12.50;9.00;;;9.60;99.90;;;;;;5031958;28;20882;-71
2022/04/05 06:20:21;;;;;;;11.43;9.30;;;9.70;99.90;;;;;;5031511;28;20412;-71
2022/04/05 06:22:48;;;;;;;11.97;9.53;;;9.70;99.90;;;;;;5030451;28;22010;-72
2022/04/05 06:25:27;;;;;;;10.33;8.63;;;9.70;99.90;;;;;;5032323;28;20505;-70
2022/04/05 06:27:52;;;;;;;12.67;9.50;;;9.70;99.90;;;;;;5032101;28;20389;-71
2022/04/05 06:30:18;;;;;;;10.57;8.27;;;9.70;99.90;;;;;;5031433;28;20452;-71
2022/04/05 06:32:46;;;;;;;11.30;9.73;;;9.70;99.90;;;;;;5031870;28;20407;-71
2022/04/05 06:35:13;;;;;;;11.77;9.40;;;9.80;99.90;;;;;;5030164;28;20637;-71
2022/04/05 06:37:41;;;;;;;10.30;8.70;;;9.80;99.90;;;;;;5019867;28;20450;-71
2022/04/05 06:40:07;;;;;;;11.30;9.30;;;9.80;99.90;;;;;;5011593;28;20449;-71
2022/04/05 06:42:34;;;;;;;11.90;9.03;;;9.80;99.90;;;;;;5011807;28;20403;-71
2022/04/05 06:44:59;;;;;;;10.90;8.63;;;9.80;99.90;;;;;;5012037;28;20421;-71
2022/04/05 06:47:28;;;;;;;12.80;9.63;;;9.80;99.90;;;;;;5012998;28;20465;-71
2022/04/05 06:49:53;;;;;;;10.73;8.33;;;9.80;99.90;;;;;;5011832;28;20565;-71
2022/04/05 06:52:19;;;;;;;11.60;9.10;;;9.80;99.90;;;;;;5011784;28;20415;-71
2022/04/05 06:54:44;;;;;;;11.53;10.07;;;9.80;99.90;;;;;;5011493;28;20199;-71
2022/04/05 06:57:10;;;;;;;12.13;9.47;;;9.80;99.90;;;;;;5011678;28;20195;-71
2022/04/05 06:59:36;;;;;;;12.50;9.10;;;9.80;99.90;;;;;;5011326;28;20574;-71
2022/04/05 07:02:01;;;;;;;11.30;8.37;;;9.90;99.90;;;;;;5011511;28;20490;-71
2022/04/05 07:04:29;;;;;;;10.47;8.53;;;9.90;99.90;;;;;;5011502;28;20186;-71
2022/04/05 07:06:54;;;;;;;11.50;8.93;;;9.90;99.90;;;;;;5011701;28;20290;-71
2022/04/05 07:09:20;;;;;;;12.23;8.87;;;9.90;99.90;;;;;;5012168;28;20543;-71
2022/04/05 07:11:46;;;;;;;10.97;8.37;;;9.90;99.90;;;;;;5014306;28;20178;-71
2022/04/05 07:14:11;;;;;;;11.73;9.57;;;10.00;99.90;;;;;;5015762;28;20168;-70
2022/04/05 07:16:37;;;;;;;10.83;8.47;;;10.00;99.90;;;;;;5015281;28;20960;-70
2022/04/05 07:19:02;;;;;;;13.53;10.13;;;10.00;99.90;;;;;;5016483;28;20181;-69
2022/04/05 07:21:28;;;;;;;11.20;10.00;;;10.00;99.90;;;;;;5014535;28;20936;-71
2022/04/05 07:23:53;;;;;;;12.53;9.57;;;10.00;99.90;;;;;;5013930;28;20671;-71
2022/04/05 07:26:21;;;;;;;11.00;9.37;;;10.00;99.90;;;;;;5014970;28;20569;-71
2022/04/05 07:28:48;;;;;;;12.47;8.57;;;10.00;99.90;;;;;;5015419;28;20175;-71
2022/04/05 07:31:14;;;;;;;10.17;7.73;;;10.00;99.90;;;;;;5016280;28;20806;-70
2022/04/05 07:33:40;;;;;;;10.10;8.17;;;10.00;99.90;;;;;;5014973;28;20406;-70
2022/04/05 07:36:05;;;;;;;10.00;8.80;;;10.00;99.90;;;;;;5014279;28;20422;-71
2022/04/05 07:38:31;;;;;;;12.50;7.40;;;10.00;99.90;;;;;;5015027;28;20674;-71
2022/04/05 07:40:57;;;;;;;8.90;7.57;;;10.00;99.90;;;;;;5015887;28;20175;-71
2022/04/05 07:43:25;;;;;;;9.60;8.07;;;10.00;99.90;;;;;;5015219;28;20254;-70
2022/04/05 07:45:52;;;;;;;10.93;8.07;;;10.00;99.90;;;;;;5014880;28;20257;-70
2022/04/05 07:48:27;;;;;;;9.10;6.60;;;10.00;99.90;;;;;;5015127;28;20740;-71
2022/04/05 07:50:53;;;;;;;6.83;5.57;;;10.00;99.90;;;;;;5015941;28;20460;-71
2022/04/05 07:53:19;;;;;;;6.73;6.07;;;10.00;99.90;;;;;;5015083;28;20409;-71
2022/04/05 07:55:44;;;;;;;7.93;6.10;;;9.90;99.90;;;;;;5015243;28;20206;-70
2022/04/05 07:58:10;;;;;;;8.63;6.57;;;9.90;99.90;;;;;;5015071;28;20589;-71
2022/04/05 08:00:36;;;;;;;9.27;7.10;;;9.90;99.90;;;;;;5014710;28;20183;-71
2022/04/05 08:03:02;;;;;;;7.00;6.30;;;9.90;99.90;;;;;;5015885;28;20552;-71
2022/04/05 08:05:27;;;;;;;8.50;6.47;;;9.90;99.90;;;;;;5014808;28;20525;-71
2022/04/05 08:07:54;;;;;;;8.70;7.03;;;9.90;99.90;;;;;;5014862;28;20420;-71
2022/04/05 08:10:20;;;;;;;7.17;5.80;;;9.80;99.90;;;;;;5012768;28;20199;-70
2022/04/05 08:12:48;;;;;;;8.87;6.60;;;9.80;99.90;;;;;;5015395;28;20433;-71
2022/04/05 08:15:16;;;;;;;10.00;7.07;;;9.80;99.90;;;;;;5014744;28;20449;-71
2022/04/05 08:17:42;;;;;;;11.37;8.20;;;9.90;99.90;;;;;;5044988;22;20500;-69
2022/04/05 08:20:09;;;;;;;12.33;7.87;;;9.80;99.90;;;;;;5027120;28;20425;-68
2022/04/05 08:22:34;;;;;;;9.80;7.00;;;9.90;99.90;;;;;;5020185;28;20412;-69
2022/04/05 08:25:00;;;;;;;10.63;8.13;;;9.90;99.90;;;;;;5038938;28;20406;-68
2022/04/05 08:27:25;;;;;;;10.03;7.33;;;9.90;99.90;;;;;;5037793;28;20192;-67
2022/04/05 08:29:51;;;;;;;9.40;8.30;;;9.90;99.90;;;;;;5037098;28;20207;-69
2022/04/05 08:32:17;;;;;;;10.60;8.47;;;9.90;99.90;;;;;;5037859;28;20175;-68
2022/04/05 08:34:45;;;;;;;12.50;9.20;;;10.00;99.90;;;;;;5037119;28;20171;-68
2022/04/05 08:37:12;;;;;;;12.40;9.90;;;10.00;99.90;;;;;;5036153;28;20190;-69
2022/04/05 08:39:38;;;;;;;12.47;10.33;;;10.00;99.90;;;;;;5037324;28;20410;-70
2022/04/05 08:42:05;;;;;;;15.87;12.10;;;10.10;99.90;;;;;;5020129;28;20971;-66
2022/04/05 08:44:31;;;;;;;13.20;11.80;;;10.10;99.90;;;;;;5037200;28;20429;-69
2022/04/05 08:46:59;;;;;;;13.77;11.67;;;10.10;99.90;;;;;;5035408;28;20839;-68
2022/04/05 08:49:27;;;;;;;14.47;12.33;;;10.10;99.90;;;;;;5035261;28;20449;-70
2022/04/05 08:51:52;;;;;;;17.23;12.10;;;10.10;99.90;;;;;;5036975;28;20555;-68
2022/04/05 08:54:18;;;;;;;17.47;13.77;;;10.20;99.90;;;;;;5037078;28;20450;-69
2022/04/05 08:56:44;;;;;;;16.20;12.63;;;10.20;99.90;;;;;;5036523;28;20605;-68
2022/04/05 08:59:09;;;;;;;18.97;13.40;;;10.30;99.90;;;;;;5035427;28;20178;-68
2022/04/05 09:01:35;;;;;;;19.73;13.47;;;10.30;99.90;;;;;;5036765;28;20574;-67
2022/04/05 09:04:00;;;;;;;15.27;12.17;;;10.30;99.90;;;;;;5036241;28;20174;-68
2022/04/05 09:06:30;;;;;;;15.77;12.77;;;10.30;99.90;;;;;;5035988;28;20206;-69
2022/04/05 09:09:06;;;;;;;15.83;12.07;;;10.40;99.90;;;;;;5035888;28;20167;-68
2022/04/05 09:11:32;;;;;;;18.00;13.10;;;10.30;99.90;;;;;;5036655;28;20924;-68
2022/04/05 09:13:59;;;;;;;18.40;13.23;;;10.30;99.90;;;;;;5036272;28;20445;-69
2022/04/05 09:16:31;;;;;;;16.40;13.90;;;10.30;99.90;;;;;;5036201;28;20167;-68
2022/04/05 09:18:59;;;;;;;18.83;13.70;;;10.30;99.90;;;;;;5036119;28;20444;-69
2022/04/05 09:21:24;;;;;;;18.50;14.10;;;10.40;99.90;;;;;;5035592;28;20418;-69
2022/04/05 09:23:52;;;;;;;17.50;12.27;;;10.40;99.90;;;;;;5037529;28;20467;-70
2022/04/05 09:26:19;;;;;;;17.00;12.57;;;10.40;99.90;;;;;;5036838;28;20167;-68
2022/04/05 09:28:47;;;;;;;14.10;12.10;;;10.40;99.90;;;;;;5036943;28;21024;-68
2022/04/05 09:31:20;;;;;;;15.10;11.83;;;10.40;99.90;;;;;;5036318;28;20488;-69
2022/04/05 09:34:04;;;;;;;13.63;11.77;;;10.40;99.90;;;;;;5035103;28;20421;-68
2022/04/05 09:36:50;;;;;;;14.20;12.30;;;10.40;99.90;;;;;;5035979;28;20812;-69
2022/04/05 09:39:16;;;;;;;16.23;12.87;;;10.40;99.90;;;;;;5035618;28;20448;-67
2022/04/05 09:41:42;;;;;;;16.07;12.33;;;10.40;99.90;;;;;;5035856;28;20422;-69
2022/04/05 09:44:08;;;;;;;13.47;10.80;;;10.40;99.90;;;;;;5035709;28;20781;-68
2022/04/05 09:46:36;;;;;;;17.50;11.90;;;10.50;99.90;;;;;;5034766;28;20414;-69
2022/04/05 09:49:10;;;;;;;17.90;12.40;;;10.50;99.90;;;;;;5036059;28;20651;-68
2022/04/05 09:51:44;;;;;;;13.03;11.63;;;10.50;99.90;;;;;;5036162;28;20428;-69
2022/04/05 09:54:22;;;;;;;12.20;10.80;;;10.50;99.90;;;;;;5036267;28;20398;-69
2022/04/05 09:56:48;;;;;;;12.30;10.63;;;10.50;99.90;;;;;;5035123;28;20441;-69
2022/04/05 09:59:18;;;;;;;14.33;11.67;;;10.50;99.90;;;;;;5034823;28;20417;-68
2022/04/05 10:01:45;;;;;;;13.93;10.73;;;10.50;99.90;;;;;;5035121;28;20422;-68
2022/04/05 10:04:14;;;;;;;14.20;11.07;;;10.40;99.90;;;;;;5035459;28;20414;-68
2022/04/05 10:06:44;;;;;;;14.03;11.50;;;10.40;99.90;;;;;;5035114;28;20437;-68
2022/04/05 10:09:19;;;;;;;13.50;11.93;;;10.40;99.90;;;;;;5034113;28;20936;-67
2022/04/05 10:11:45;;;;;;;15.17;12.10;;;10.40;99.90;;;;;;5034760;28;20494;-67
2022/04/05 10:14:13;;;;;;;15.80;12.27;;;10.40;99.90;;;;;;5034081;28;20426;-67
2022/04/05 10:16:39;;;;;;;14.80;12.57;;;10.40;99.90;;;;;;5034886;28;20442;-69
2022/04/05 10:19:10;;;;;;;13.20;11.40;;;10.40;99.90;;;;;;5034720;28;20401;-68
2022/04/05 10:21:38;;;;;;;15.70;11.83;;;10.40;99.90;;;;;;5035070;28;20394;-69
2022/04/05 10:24:05;;;;;;;14.80;12.17;;;10.40;99.90;;;;;;5034368;28;20488;-69
2022/04/05 10:26:36;;;;;;;13.57;11.90;;;10.50;99.90;;;;;;5034873;28;20819;-69
2022/04/05 10:29:06;;;;;;;12.33;11.03;;;10.60;99.90;;;;;;5034117;28;20435;-68
2022/04/05 10:31:57;;;;;;;12.57;11.27;;;10.60;99.90;;;;;;5034176;28;20417;-69
2022/04/05 10:34:28;;;;;;;11.23;9.50;;;10.60;99.90;;;;;;5034119;28;20421;-68
2022/04/05 10:37:16;;;;;;;11.67;9.97;;;10.70;99.90;;;;;;5033678;28;20473;-67
2022/04/05 10:39:42;;;;;;;13.17;9.83;;;10.80;99.90;;;;;;5031849;28;20517;-68
2022/04/05 10:42:15;;;;;;;10.83;9.60;;;11.00;99.90;;;;;;5033428;28;20438;-68
2022/04/05 10:44:49;;;;;;;11.53;9.87;;;11.10;99.90;;;;;;5033497;28;20151;-67
2022/04/05 10:47:15;;;;;;;11.83;8.80;;;11.10;99.90;;;;;;5033078;28;20456;-68
2022/04/05 10:49:47;;;;;;;10.83;9.40;;;11.20;99.90;;;;;;5031729;28;20449;-67
2022/04/05 10:52:19;;;;;;;11.20;9.70;;;11.30;99.90;;;;;;5033340;28;20172;-69
2022/04/05 10:55:04;;;;;;;10.77;9.67;;;11.40;99.90;;;;;;5032638;28;20402;-68
2022/04/05 10:57:37;;;;;;;10.33;9.33;;;11.40;99.90;;;;;;5033730;28;20425;-69
2022/04/05 11:00:19;;;;;;;10.20;8.90;;;11.50;99.90;;;;;;5033347;28;20927;-69
2022/04/05 11:02:47;;;;;;;10.37;9.30;;;11.60;99.90;;;;;;5033356;28;20409;-69
2022/04/05 11:05:13;;;;;;;10.90;9.80;;;11.60;99.90;;;;;;5033341;28;20976;-69
2022/04/05 11:08:03;;;;;;;12.87;10.40;;;11.60;99.90;;;;;;5031045;28;20525;-67
2022/04/05 11:10:36;;;;;;;13.73;11.40;;;11.80;99.90;;;;;;5006568;28;20844;-68
2022/04/05 11:13:07;;;;;;;12.37;11.17;;;11.90;99.90;;;;;;5012057;28;20777;-68
2022/04/05 11:15:40;;;;;;;11.57;10.20;;;12.10;99.90;;;;;;5012414;28;20410;-69
2022/04/05 11:18:06;;;;;;;11.83;10.57;;;12.10;99.90;;;;;;5012569;28;20489;-69
2022/04/05 11:20:31;;;;;;;11.70;10.37;;;12.10;99.90;;;;;;5027922;28;20461;-69
2022/04/05 11:23:00;;;;;;;11.90;10.63;;;12.20;99.90;;;;;;5032857;28;20186;-69
2022/04/05 11:25:28;;;;;;;12.10;10.90;;;12.20;99.90;;;;;;5032467;28;20713;-69
2022/04/05 11:27:55;;;;;;;12.27;10.83;;;12.30;99.90;;;;;;5033018;28;20943;-68
2022/04/05 11:30:21;;;;;;;12.27;10.37;;;12.30;99.90;;;;;;5032620;28;20820;-68
2022/04/05 11:33:06;;;;;;;11.63;10.43;;;12.30;99.90;;;;;;5033505;28;20420;-67
2022/04/05 11:35:35;;;;;;;12.00;10.60;;;12.20;99.90;;;;;;5033107;28;20401;-68
2022/04/05 11:38:00;;;;;;;11.53;10.47;;;12.20;99.90;;;;;;5033223;28;20431;-67
2022/04/05 11:40:26;;;;;;;10.63;9.60;;;12.10;99.90;;;;;;5032166;28;20500;-70
2022/04/05 11:42:52;;;;;;;12.03;10.83;;;12.30;99.90;;;;;;5032208;28;20206;-68
2022/04/05 11:45:19;;;;;;;11.13;10.10;;;12.40;99.90;;;;;;5030976;28;20186;-71
2022/04/05 11:47:54;;;;;;;12.07;10.97;;;12.40;99.90;;;;;;5032349;28;20771;-68
2022/04/05 11:50:20;;;;;;;12.00;9.93;;;12.30;99.90;;;;;;5031539;28;20455;-68
2022/04/05 11:52:46;;;;;;;10.80;9.70;;;12.30;99.90;;;;;;5031201;28;20508;-70
2022/04/05 11:58:03;;;;;;;9.73;8.83;;;12.30;99.90;;;;;;5035302;28;20222;-68
2022/04/05 12:00:29;;;;;;;10.77;9.67;;;12.40;99.90;;;;;;5035494;28;20409;-69
2022/04/05 12:03:05;;;;;;;10.03;6.77;;;12.40;99.90;;;;;;5036030;28;20705;-69
2022/04/05 12:05:44;;;;;;;9.17;7.80;;;12.30;99.90;;;;;;5035181;28;20171;-69
2022/04/05 12:08:13;;;;;;;10.03;7.73;;;12.30;99.90;;;;;;5035975;28;20517;-68
2022/04/05 12:10:44;;;;;;;8.57;7.57;;;12.30;99.90;;;;;;5035516;28;20524;-70
2022/04/05 12:13:10;;;;;;;11.40;8.53;;;12.30;99.90;;;;;;5035379;28;20433;-69
2022/04/05 12:15:37;;;;;;;9.50;8.60;;;12.30;99.90;;;;;;5035635;28;20448;-68
2022/04/05 12:18:19;;;;;;;10.30;9.30;;;12.20;99.90;;;;;;5035720;28;20449;-69
2022/04/05 12:21:01;;;;;;;10.50;8.97;;;12.10;99.90;;;;;;5035942;28;20398;-69
2022/04/05 12:23:31;;;;;;;11.03;9.73;;;12.00;99.90;;;;;;5036029;28;20457;-69
2022/04/05 12:26:21;;;;;;;13.30;10.63;;;11.80;99.90;;;;;;5036743;28;20410;-69
2022/04/05 12:28:53;;;;;;;13.73;11.60;;;11.70;99.90;;;;;;5015712;28;20449;-68
2022/04/05 12:31:28;;;;;;;13.70;11.77;;;11.60;99.90;;;;;;5014982;28;20450;-69
2022/04/05 12:34:08;;;;;;;16.37;12.27;;;11.50;99.90;;;;;;5022795;28;20414;-69
2022/04/05 12:36:40;;;;;;;13.23;11.50;;;11.40;99.90;;;;;;5018972;28;20534;-70
2022/04/05 12:39:18;;;;;;;14.37;12.87;;;11.30;99.90;;;;;;5036055;28;20437;-68
2022/04/05 12:41:46;;;;;;;16.07;14.00;;;11.30;99.90;;;;;;5034349;28;20510;-68
2022/04/05 12:44:14;;;;;;;15.77;14.03;;;11.40;99.90;;;;;;5009853;28;20456;-68
2022/04/05 12:46:48;;;;;;;17.37;14.00;;;11.40;99.90;;;;;;5028015;28;20453;-68
2022/04/05 12:49:24;;;;;;;18.90;16.95;;;11.40;99.90;;;;;;5030690;28;20417;-70